All
Collie Airport (Collie Western Australia) YCOI Weather
There is no TAF data available at YCOI. Showing TAF data for YBUN (29 mi W).
BUY Terminal Area Forecast (no data for YCOI)
| Date | Time (AWST) | Flight Rules | Wind Dir. | Speed | Type | Height AGL (ft) | Visibility | Remarks | ||||||
|---|---|---|---|---|---|---|---|---|---|---|---|---|---|---|
| 06-May | 11:00 | VFR | 120° | 8 kt | Clouds and Visibility are OK | >= 6 miles | ||||||||
| 06-May | 10:00 | VFR | 120° | 8 kt | Clouds and Visibility are OK | >= 6 miles | ||||||||
| 06-May | 09:00 | VFR | 120° | 8 kt | Clouds and Visibility are OK | >= 6 miles | ||||||||
| 06-May | 08:00 | VFR | 120° | 8 kt | Clouds and Visibility are OK | >= 6 miles | ||||||||
| 06-May | 07:00 | VFR | 120° | 8 kt | Clouds and Visibility are OK | >= 6 miles | ||||||||
There is no METAR data available at YCOI. Showing METAR data for YBUN (29 mi W).
Recent BUY METAR history (no data for YCOI)
| Date | Time (AWST) | Flight Rules | Wind Dir. | Speed | Type | Height AGL (ft) | Visibility | Temp (°C) | Temp (°F) | Dew Point (°C) | Dew Point (°F) | Rel. Humid. | Pressure | Density Altitude | Remarks |
|---|---|---|---|---|---|---|---|---|---|---|---|---|---|---|---|
| gap in available data | |||||||||||||||
| 06-May | 07:30 | VFR | 150° | 4 kt | 10000 meters | 11° | 51° | 9° | 48° | 87% | 1030 mb | -924 ft | |||
| 06-May | 07:00 | VFR | 170° | 4 kt | 10000 meters | 9° | 48° | 8° | 46° | 93% | 1030 mb | -1,164 ft | |||
| 06-May | 06:00 | VFR | 110° | 5 kt | 10000 meters | 12° | 53° | 9° | 48° | 82% | 1029 mb | -774 ft | |||
| 06-May | 05:00 | VFR | 120° | 4 kt | 10000 meters | 12° | 53° | 9° | 48° | 82% | 1029 mb | -774 ft | |||
| 06-May | 04:00 | VFR | 140° | 4 kt | 10000 meters | 12° | 53° | 9° | 48° | 82% | 1028 mb | -745 ft | |||
| 06-May | 03:00 | VFR | 120° | 4 kt | 10000 meters | 12° | 53° | 10° | 50° | 88% | 1028 mb | -745 ft | |||
| 06-May | 02:00 | VFR | 130° | 5 kt | 10000 meters | 12° | 53° | 9° | 48° | 82% | 1028 mb | -745 ft | |||
| 06-May | 01:00 | VFR | 130° | 6 kt | 10000 meters | 13° | 55° | 9° | 48° | 77% | 1028 mb | -625 ft | |||
| 06-May | 00:00 | VFR | 120° | 7 kt | 10000 meters | 13° | 55° | 9° | 48° | 77% | 1028 mb | -625 ft | |||
| 05-May | 23:00 | VFR | 130° | 7 kt | 10000 meters | 14° | 57° | 9° | 48° | 72% | 1028 mb | -505 ft | |||
| 05-May | 22:00 | VFR | 140° | 5 kt | 10000 meters | 14° | 57° | 9° | 48° | 72% | 1028 mb | -505 ft | |||
| 05-May | 21:00 | VFR | 150° | 4 kt | 10000 meters | 12° | 53° | 9° | 48° | 82% | 1028 mb | -745 ft | |||
| 05-May | 20:00 | VFR | 160° | 5 kt | 10000 meters | 13° | 55° | 10° | 50° | 82% | 1027 mb | -595 ft | |||
| 05-May | 19:00 | VFR | 160° | 4 kt | 10000 meters | 14° | 57° | 10° | 50° | 77% | 1027 mb | -475 ft | |||
| 05-May | 18:00 | VFR | 200° | 3 kt | 10000 meters | 14° | 57° | 9° | 48° | 72% | 1026 mb | -446 ft | |||
| 05-May | 17:00 | VFR | 190° | 4 kt | 10000 meters | 19° | 66° | 10° | 50° | 56% | 1026 mb | 154 ft | |||
| 05-May | 16:00 | VFR | 190° | 4 kt | 10000 meters | 21° | 69° | 9° | 48° | 46% | 1025 mb | 424 ft | |||
| 05-May | 15:00 | VFR | 160° | 5 kt | 10000 meters | 21° | 69° | 10° | 50° | 49% | 1025 mb | 424 ft | |||
| 05-May | 14:00 | VFR | 110° | 3 kt | 10000 meters | 20° | 68° | 11° | 51° | 56% | 1026 mb | 274 ft | |||
| 05-May | 13:00 | VFR | 190° | 3 kt | 10000 meters | 20° | 68° | 10° | 50° | 53% | 1026 mb | 274 ft | |||
| 05-May | 12:00 | VFR | 150° | 3 kt | 10000 meters | 19° | 66° | 10° | 50° | 56% | 1027 mb | 125 ft | |||
| 05-May | 11:00 | VFR | 50° | 3 kt | 10000 meters | 18° | 64° | 11° | 51° | 64% | 1027 mb | 5 ft | |||
| 05-May | 10:00 | VFR | 80° | 5 kt | 10000 meters | 17° | 62° | 11° | 51° | 68% | 1027 mb | -115 ft | |||
| 05-May | 09:00 | VFR | 100° | 3 kt | 10000 meters | 14° | 57° | 11° | 51° | 82% | 1028 mb | -505 ft | |||
Login
| Your browser is unsupported. upgrade your browser |
